sensor_id;sensor_type;location;lat;lon;timestamp;pressure;altitude;pressure_sealevel;temperature;humidity
47522;BME280;32291;52.010;4.446;2023-09-12T00:00:54;77439.81;;;-144.67;100.00
47522;BME280;32291;52.010;4.446;2023-09-12T00:02:00;77441.94;;;-144.67;100.00
47522;BME280;32291;52.010;4.446;2023-09-12T00:03:03;77444.09;;;-144.67;100.00
47522;BME280;32291;52.010;4.446;2023-09-12T00:04:06;77444.09;;;-144.67;100.00
47522;BME280;32291;52.010;4.446;2023-09-12T00:05:08;77454.78;;;-144.67;100.00
47522;BME280;32291;52.010;4.446;2023-09-12T00:06:15;77439.81;;;-144.67;100.00
47522;BME280;32291;52.010;4.446;2023-09-12T00:07:18;77435.53;;;-144.67;100.00
47522;BME280;32291;52.010;4.446;2023-09-12T00:08:20;77435.53;;;-144.67;100.00
47522;BME280;32291;52.010;4.446;2023-09-12T00:09:29;77441.94;;;-144.67;100.00
47522;BME280;32291;52.010;4.446;2023-09-12T00:10:36;77456.94;;;-144.67;100.00
47522;BME280;32291;52.010;4.446;2023-09-12T00:11:38;77463.34;;;-144.67;100.00
47522;BME280;32291;52.010;4.446;2023-09-12T00:12:45;77456.94;;;-144.67;100.00
47522;BME280;32291;52.010;4.446;2023-09-12T00:13:52;77461.22;;;-144.67;100.00
47522;BME280;32291;52.010;4.446;2023-09-12T00:14:54;77456.94;;;-144.67;100.00
47522;BME280;32291;52.010;4.446;2023-09-12T00:15:59;77463.34;;;-144.67;100.00
47522;BME280;32291;52.010;4.446;2023-09-12T00:17:08;77454.78;;;-144.67;100.00
47522;BME280;32291;52.010;4.446;2023-09-12T00:18:18;77448.38;;;-144.67;100.00
47522;BME280;32291;52.010;4.446;2023-09-12T00:19:20;77456.94;;;-144.67;100.00
47522;BME280;32291;52.010;4.446;2023-09-12T00:20:22;77456.94;;;-144.67;100.00
47522;BME280;32291;52.010;4.446;2023-09-12T00:21:25;77452.66;;;-144.67;100.00
47522;BME280;32291;52.010;4.446;2023-09-12T00:22:32;77452.66;;;-144.67;100.00
47522;BME280;32291;52.010;4.446;2023-09-12T00:23:39;77456.94;;;-144.67;100.00
47522;BME280;32291;52.010;4.446;2023-09-12T00:24:41;77452.66;;;-144.67;100.00
47522;BME280;32291;52.010;4.446;2023-09-12T00:25:43;77459.06;;;-144.67;100.00
47522;BME280;32291;52.010;4.446;2023-09-12T00:26:45;77465.50;;;-144.67;100.00
47522;BME280;32291;52.010;4.446;2023-09-12T00:27:47;77454.78;;;-144.67;100.00
47522;BME280;32291;52.010;4.446;2023-09-12T00:28:50;77456.94;;;-144.67;100.00
47522;BME280;32291;52.010;4.446;2023-09-12T00:29:55;77467.63;;;-144.67;100.00
47522;BME280;32291;52.010;4.446;2023-09-12T00:31:02;77469.78;;;-144.67;100.00
47522;BME280;32291;52.010;4.446;2023-09-12T00:32:09;77467.63;;;-144.67;100.00
47522;BME280;32291;52.010;4.446;2023-09-12T00:33:11;77467.63;;;-144.67;100.00
47522;BME280;32291;52.010;4.446;2023-09-12T00:34:17;77465.50;;;-144.67;100.00
47522;BME280;32291;52.010;4.446;2023-09-12T00:35:19;77461.22;;;-144.67;100.00
47522;BME280;32291;52.010;4.446;2023-09-12T00:36:24;77465.50;;;-144.67;100.00
47522;BME280;32291;52.010;4.446;2023-09-12T00:37:26;77454.78;;;-144.67;100.00
47522;BME280;32291;52.010;4.446;2023-09-12T00:38:36;77461.22;;;-144.67;100.00
47522;BME280;32291;52.010;4.446;2023-09-12T00:39:42;77465.50;;;-144.67;100.00
47522;BME280;32291;52.010;4.446;2023-09-12T00:40:45;77469.78;;;-144.67;100.00
47522;BME280;32291;52.010;4.446;2023-09-12T00:41:47;77474.06;;;-144.67;100.00
47522;BME280;32291;52.010;4.446;2023-09-12T00:42:49;77467.63;;;-144.67;100.00
47522;BME280;32291;52.010;4.446;2023-09-12T00:43:52;77478.34;;;-144.67;100.00
47522;BME280;32291;52.010;4.446;2023-09-12T00:44:54;77467.63;;;-144.67;100.00
47522;BME280;32291;52.010;4.446;2023-09-12T00:45:56;77469.78;;;-144.67;100.00
47522;BME280;32291;52.010;4.446;2023-09-12T00:47:02;77469.78;;;-144.67;100.00
47522;BME280;32291;52.010;4.446;2023-09-12T00:48:07;77474.06;;;-144.67;100.00
47522;BME280;32291;52.010;4.446;2023-09-12T00:49:14;77469.78;;;-144.67;100.00
47522;BME280;32291;52.010;4.446;2023-09-12T00:50:20;77465.50;;;-144.67;100.00
47522;BME280;32291;52.010;4.446;2023-09-12T00:51:32;77474.06;;;-144.67;100.00
47522;BME280;32291;52.010;4.446;2023-09-12T00:52:40;77474.06;;;-144.67;100.00
47522;BME280;32291;52.010;4.446;2023-09-12T00:53:43;77467.63;;;-144.67;100.00
47522;BME280;32291;52.010;4.446;2023-09-12T00:54:46;77465.50;;;-144.67;100.00
47522;BME280;32291;52.010;4.446;2023-09-12T00:55:59;77465.50;;;-144.67;100.00
47522;BME280;32291;52.010;4.446;2023-09-12T00:57:03;77467.63;;;-144.67;100.00
47522;BME280;32291;52.010;4.446;2023-09-12T00:58:05;77476.19;;;-144.67;100.00
47522;BME280;32291;52.010;4.446;2023-09-12T00:59:10;77478.34;;;-144.67;100.00
47522;BME280;32291;52.010;4.446;2023-09-12T01:00:18;77482.63;;;-144.67;100.00
47522;BME280;32291;52.010;4.446;2023-09-12T01:01:21;77480.47;;;-144.67;100.00
47522;BME280;32291;52.010;4.446;2023-09-12T01:02:24;77478.34;;;-144.67;100.00
47522;BME280;32291;52.010;4.446;2023-09-12T01:03:30;77486.91;;;-144.67;100.00
47522;BME280;32291;52.010;4.446;2023-09-12T01:04:36;77486.91;;;-144.67;100.00
47522;BME280;32291;52.010;4.446;2023-09-12T01:05:39;77486.91;;;-144.67;100.00
47522;BME280;32291;52.010;4.446;2023-09-12T01:06:48;77482.63;;;-144.67;100.00
47522;BME280;32291;52.010;4.446;2023-09-12T01:07:56;77486.91;;;-144.67;100.00
47522;BME280;32291;52.010;4.446;2023-09-12T01:08:58;77489.03;;;-144.67;100.00
47522;BME280;32291;52.010;4.446;2023-09-12T01:10:07;77486.91;;;-144.67;100.00
47522;BME280;32291;52.010;4.446;2023-09-12T01:11:10;77484.75;;;-144.67;100.00
47522;BME280;32291;52.010;4.446;2023-09-12T01:12:14;77489.03;;;-144.67;100.00
47522;BME280;32291;52.010;4.446;2023-09-12T01:13:17;77491.19;;;-144.67;100.00
47522;BME280;32291;52.010;4.446;2023-09-12T01:14:24;77499.75;;;-144.67;100.00
47522;BME280;32291;52.010;4.446;2023-09-12T01:15:26;77491.19;;;-144.67;100.00
47522;BME280;32291;52.010;4.446;2023-09-12T01:16:28;77486.91;;;-144.67;100.00
47522;BME280;32291;52.010;4.446;2023-09-12T01:17:31;77486.91;;;-144.67;100.00
47522;BME280;32291;52.010;4.446;2023-09-12T01:18:33;77486.91;;;-144.67;100.00
47522;BME280;32291;52.010;4.446;2023-09-12T01:19:40;77495.47;;;-144.67;100.00
47522;BME280;32291;52.010;4.446;2023-09-12T01:22:46;77495.47;;;-144.67;100.00
47522;BME280;32291;52.010;4.446;2023-09-12T01:24:26;77504.03;;;-144.67;100.00
47522;BME280;32291;52.010;4.446;2023-09-12T01:26:09;77504.03;;;-144.67;100.00
47522;BME280;32291;52.010;4.446;2023-09-12T01:27:22;77501.88;;;-144.67;100.00
47522;BME280;32291;52.010;4.446;2023-09-12T01:28:30;77512.59;;;-144.67;100.00
47522;BME280;32291;52.010;4.446;2023-09-12T01:29:38;77521.16;;;-144.67;100.00
47522;BME280;32291;52.010;4.446;2023-09-12T01:30:50;77521.16;;;-144.67;100.00
47522;BME280;32291;52.010;4.446;2023-09-12T01:31:55;77521.16;;;-144.67;100.00
47522;BME280;32291;52.010;4.446;2023-09-12T01:32:58;77521.16;;;-144.67;100.00
47522;BME280;32291;52.010;4.446;2023-09-12T01:34:11;77514.72;;;-144.67;100.00
47522;BME280;32291;52.010;4.446;2023-09-12T01:35:13;77516.88;;;-144.67;100.00
47522;BME280;32291;52.010;4.446;2023-09-12T01:36:16;77514.72;;;-144.67;100.00
47522;BME280;32291;52.010;4.446;2023-09-12T01:37:18;77514.72;;;-144.67;100.00
47522;BME280;32291;52.010;4.446;2023-09-12T01:38:21;77510.44;;;-144.67;100.00
47522;BME280;32291;52.010;4.446;2023-09-12T01:39:24;77510.44;;;-144.67;100.00
47522;BME280;32291;52.010;4.446;2023-09-12T01:40:41;77512.59;;;-144.67;100.00
47522;BME280;32291;52.010;4.446;2023-09-12T01:41:47;77516.88;;;-144.67;100.00
47522;BME280;32291;52.010;4.446;2023-09-12T01:42:55;77519.00;;;-144.67;100.00
47522;BME280;32291;52.010;4.446;2023-09-12T01:44:03;77514.72;;;-144.67;100.00
47522;BME280;32291;52.010;4.446;2023-09-12T01:45:10;77516.88;;;-144.67;100.00
47522;BME280;32291;52.010;4.446;2023-09-12T01:46:16;77516.88;;;-144.67;100.00
47522;BME280;32291;52.010;4.446;2023-09-12T01:47:21;77514.72;;;-144.67;100.00
47522;BME280;32291;52.010;4.446;2023-09-12T01:48:34;77516.88;;;-144.67;100.00
47522;BME280;32291;52.010;4.446;2023-09-12T01:49:46;77523.28;;;-144.67;100.00
47522;BME280;32291;52.010;4.446;2023-09-12T01:50:50;77519.00;;;-144.67;100.00
47522;BME280;32291;52.010;4.446;2023-09-12T01:51:53;77516.88;;;-144.67;100.00
47522;BME280;32291;52.010;4.446;2023-09-12T01:52:56;77512.59;;;-144.67;100.00
47522;BME280;32291;52.010;4.446;2023-09-12T01:54:03;77521.16;;;-144.67;100.00
47522;BME280;32291;52.010;4.446;2023-09-12T01:55:08;77519.00;;;-144.67;100.00
47522;BME280;32291;52.010;4.446;2023-09-12T01:56:13;77525.44;;;-144.67;100.00
47522;BME280;32291;52.010;4.446;2023-09-12T01:57:23;77534.00;;;-144.67;100.00
47522;BME280;32291;52.010;4.446;2023-09-12T01:58:26;77534.00;;;-144.67;100.00
47522;BME280;32291;52.010;4.446;2023-09-12T01:59:30;77534.00;;;-144.67;100.00
47522;BME280;32291;52.010;4.446;2023-09-12T02:00:33;77529.72;;;-144.67;100.00
47522;BME280;32291;52.010;4.446;2023-09-12T02:01:36;77525.44;;;-144.67;100.00
47522;BME280;32291;52.010;4.446;2023-09-12T02:02:38;77534.00;;;-144.67;100.00
47522;BME280;32291;52.010;4.446;2023-09-12T02:03:42;77534.00;;;-144.67;100.00
47522;BME280;32291;52.010;4.446;2023-09-12T02:05:15;77534.00;;;-144.67;100.00
47522;BME280;32291;52.010;4.446;2023-09-12T02:06:25;77534.00;;;-144.67;100.00
47522;BME280;32291;52.010;4.446;2023-09-12T02:07:33;77534.00;;;-144.67;100.00
47522;BME280;32291;52.010;4.446;2023-09-12T02:08:35;77536.13;;;-144.67;100.00
47522;BME280;32291;52.010;4.446;2023-09-12T02:09:38;77544.69;;;-144.67;100.00
47522;BME280;32291;52.010;4.446;2023-09-12T02:10:42;77542.56;;;-144.67;100.00
47522;BME280;32291;52.010;4.446;2023-09-12T02:11:48;77542.56;;;-144.67;100.00
47522;BME280;32291;52.010;4.446;2023-09-12T02:12:53;77542.56;;;-144.67;100.00
47522;BME280;32291;52.010;4.446;2023-09-12T02:13:55;77546.84;;;-144.67;100.00
47522;BME280;32291;52.010;4.446;2023-09-12T02:14:59;77540.41;;;-144.67;100.00
47522;BME280;32291;52.010;4.446;2023-09-12T02:16:02;77542.56;;;-144.67;100.00
47522;BME280;32291;52.010;4.446;2023-09-12T02:17:05;77542.56;;;-144.67;100.00
47522;BME280;32291;52.010;4.446;2023-09-12T02:18:07;77546.84;;;-144.67;100.00
47522;BME280;32291;52.010;4.446;2023-09-12T02:19:09;77544.69;;;-144.67;100.00
47522;BME280;32291;52.010;4.446;2023-09-12T02:20:11;77538.28;;;-144.67;100.00
47522;BME280;32291;52.010;4.446;2023-09-12T02:21:18;77540.41;;;-144.67;100.00
47522;BME280;32291;52.010;4.446;2023-09-12T02:22:21;77542.56;;;-144.67;100.00
47522;BME280;32291;52.010;4.446;2023-09-12T02:23:28;77538.28;;;-144.67;100.00
47522;BME280;32291;52.010;4.446;2023-09-12T02:24:35;77540.41;;;-144.67;100.00
47522;BME280;32291;52.010;4.446;2023-09-12T02:25:37;77538.28;;;-144.67;100.00
47522;BME280;32291;52.010;4.446;2023-09-12T02:26:44;77538.28;;;-144.67;100.00
47522;BME280;32291;52.010;4.446;2023-09-12T02:27:46;77540.41;;;-144.67;100.00
47522;BME280;32291;52.010;4.446;2023-09-12T02:28:49;77538.28;;;-144.67;100.00
47522;BME280;32291;52.010;4.446;2023-09-12T02:29:51;77538.28;;;-144.67;100.00
47522;BME280;32291;52.010;4.446;2023-09-12T02:30:53;77538.28;;;-144.67;100.00
47522;BME280;32291;52.010;4.446;2023-09-12T02:32:00;77538.28;;;-144.67;100.00
47522;BME280;32291;52.010;4.446;2023-09-12T02:33:03;77534.00;;;-144.67;100.00
47522;BME280;32291;52.010;4.446;2023-09-12T02:34:05;77538.28;;;-144.67;100.00
47522;BME280;32291;52.010;4.446;2023-09-12T02:35:08;77525.44;;;-144.67;100.00
47522;BME280;32291;52.010;4.446;2023-09-12T02:36:12;77525.44;;;-144.67;100.00
47522;BME280;32291;52.010;4.446;2023-09-12T02:37:19;77525.44;;;-144.67;100.00
47522;BME280;32291;52.010;4.446;2023-09-12T02:38:24;77531.84;;;-144.67;100.00
47522;BME280;32291;52.010;4.446;2023-09-12T02:39:31;77534.00;;;-144.67;100.00
47522;BME280;32291;52.010;4.446;2023-09-12T02:40:38;77529.72;;;-144.67;100.00
47522;BME280;32291;52.010;4.446;2023-09-12T02:41:47;77525.44;;;-144.67;100.00
47522;BME280;32291;52.010;4.446;2023-09-12T02:42:49;77527.56;;;-144.67;100.00
47522;BME280;32291;52.010;4.446;2023-09-12T02:43:54;77525.44;;;-144.67;100.00
47522;BME280;32291;52.010;4.446;2023-09-12T02:44:56;77527.56;;;-144.67;100.00
47522;BME280;32291;52.010;4.446;2023-09-12T02:46:02;77527.56;;;-144.67;100.00
47522;BME280;32291;52.010;4.446;2023-09-12T02:47:05;77523.28;;;-144.67;100.00
47522;BME280;32291;52.010;4.446;2023-09-12T02:48:07;77523.28;;;-144.67;100.00
47522;BME280;32291;52.010;4.446;2023-09-12T02:49:14;77527.56;;;-144.67;100.00
47522;BME280;32291;52.010;4.446;2023-09-12T02:50:19;77521.16;;;-144.67;100.00
47522;BME280;32291;52.010;4.446;2023-09-12T02:51:29;77512.59;;;-144.67;100.00
47522;BME280;32291;52.010;4.446;2023-09-12T02:52:31;77510.44;;;-144.67;100.00
47522;BME280;32291;52.010;4.446;2023-09-12T02:53:33;77512.59;;;-144.67;100.00
47522;BME280;32291;52.010;4.446;2023-09-12T02:54:35;77499.75;;;-144.67;100.00
47522;BME280;32291;52.010;4.446;2023-09-12T02:55:42;77510.44;;;-144.67;100.00
47522;BME280;32291;52.010;4.446;2023-09-12T02:56:44;77508.31;;;-144.67;100.00
47522;BME280;32291;52.010;4.446;2023-09-12T02:57:51;77512.59;;;-144.67;100.00
47522;BME280;32291;52.010;4.446;2023-09-12T02:58:54;77508.31;;;-144.67;100.00
47522;BME280;32291;52.010;4.446;2023-09-12T03:00:01;77506.16;;;-144.67;100.00
47522;BME280;32291;52.010;4.446;2023-09-12T03:01:03;77512.59;;;-144.67;100.00
47522;BME280;32291;52.010;4.446;2023-09-12T03:02:13;77508.31;;;-144.67;100.00
47522;BME280;32291;52.010;4.446;2023-09-12T03:03:15;77508.31;;;-144.67;100.00
47522;BME280;32291;52.010;4.446;2023-09-12T03:04:19;77510.44;;;-144.67;100.00
47522;BME280;32291;52.010;4.446;2023-09-12T03:05:28;77512.59;;;-144.67;100.00
47522;BME280;32291;52.010;4.446;2023-09-12T03:06:31;77512.59;;;-144.67;100.00
47522;BME280;32291;52.010;4.446;2023-09-12T03:07:33;77504.03;;;-144.67;100.00
47522;BME280;32291;52.010;4.446;2023-09-12T03:08:35;77512.59;;;-144.67;100.00
47522;BME280;32291;52.010;4.446;2023-09-12T03:09:42;77512.59;;;-144.67;100.00
47522;BME280;32291;52.010;4.446;2023-09-12T03:10:44;77506.16;;;-144.67;100.00
47522;BME280;32291;52.010;4.446;2023-09-12T03:11:48;77499.75;;;-144.67;100.00
47522;BME280;32291;52.010;4.446;2023-09-12T03:12:55;77501.88;;;-144.67;100.00
47522;BME280;32291;52.010;4.446;2023-09-12T03:14:00;77499.75;;;-144.67;100.00
47522;BME280;32291;52.010;4.446;2023-09-12T03:15:02;77508.31;;;-144.67;100.00
47522;BME280;32291;52.010;4.446;2023-09-12T03:16:14;77495.47;;;-144.67;100.00
47522;BME280;32291;52.010;4.446;2023-09-12T03:17:21;77491.19;;;-144.67;100.00
47522;BME280;32291;52.010;4.446;2023-09-12T03:18:23;77489.03;;;-144.67;100.00
47522;BME280;32291;52.010;4.446;2023-09-12T03:19:25;77491.19;;;-144.67;100.00
47522;BME280;32291;52.010;4.446;2023-09-12T03:20:30;77495.47;;;-144.67;100.00
47522;BME280;32291;52.010;4.446;2023-09-12T03:21:32;77491.19;;;-144.67;100.00
47522;BME280;32291;52.010;4.446;2023-09-12T03:22:35;77486.91;;;-144.67;100.00
47522;BME280;32291;52.010;4.446;2023-09-12T03:23:42;77489.03;;;-144.67;100.00
47522;BME280;32291;52.010;4.446;2023-09-12T03:24:49;77489.03;;;-144.67;100.00
47522;BME280;32291;52.010;4.446;2023-09-12T03:25:54;77489.03;;;-144.67;100.00
47522;BME280;32291;52.010;4.446;2023-09-12T03:27:01;77482.63;;;-144.67;100.00
47522;BME280;32291;52.010;4.446;2023-09-12T03:28:04;77480.47;;;-144.67;100.00
47522;BME280;32291;52.010;4.446;2023-09-12T03:29:12;77478.34;;;-144.67;100.00
47522;BME280;32291;52.010;4.446;2023-09-12T03:30:20;77476.19;;;-144.67;100.00
47522;BME280;32291;52.010;4.446;2023-09-12T03:31:23;77469.78;;;-144.67;100.00
47522;BME280;32291;52.010;4.446;2023-09-12T03:32:30;77469.78;;;-144.67;100.00
47522;BME280;32291;52.010;4.446;2023-09-12T03:33:32;77469.78;;;-144.67;100.00
47522;BME280;32291;52.010;4.446;2023-09-12T03:34:42;77465.50;;;-144.67;100.00
47522;BME280;32291;52.010;4.446;2023-09-12T03:35:44;77469.78;;;-144.67;100.00
47522;BME280;32291;52.010;4.446;2023-09-12T03:36:51;77471.91;;;-144.67;100.00
47522;BME280;32291;52.010;4.446;2023-09-12T03:37:54;77469.78;;;-144.67;100.00
47522;BME280;32291;52.010;4.446;2023-09-12T03:38:56;77469.78;;;-144.67;100.00
47522;BME280;32291;52.010;4.446;2023-09-12T03:40:09;77465.50;;;-144.67;100.00
47522;BME280;32291;52.010;4.446;2023-09-12T03:41:11;77469.78;;;-144.67;100.00
47522;BME280;32291;52.010;4.446;2023-09-12T03:42:14;77469.78;;;-144.67;100.00
47522;BME280;32291;52.010;4.446;2023-09-12T03:43:16;77463.34;;;-144.67;100.00
47522;BME280;32291;52.010;4.446;2023-09-12T03:44:18;77463.34;;;-144.67;100.00
47522;BME280;32291;52.010;4.446;2023-09-12T03:45:22;77469.78;;;-144.67;100.00
47522;BME280;32291;52.010;4.446;2023-09-12T03:46:24;77474.06;;;-144.67;100.00
47522;BME280;32291;52.010;4.446;2023-09-12T03:47:27;77469.78;;;-144.67;100.00
47522;BME280;32291;52.010;4.446;2023-09-12T03:48:33;77465.50;;;-144.67;100.00
47522;BME280;32291;52.010;4.446;2023-09-12T03:49:40;77471.91;;;-144.67;100.00
47522;BME280;32291;52.010;4.446;2023-09-12T03:50:42;77465.50;;;-144.67;100.00
47522;BME280;32291;52.010;4.446;2023-09-12T03:51:47;77463.34;;;-144.67;100.00
47522;BME280;32291;52.010;4.446;2023-09-12T03:52:49;77465.50;;;-144.67;100.00
47522;BME280;32291;52.010;4.446;2023-09-12T03:53:56;77459.06;;;-144.67;100.00
47522;BME280;32291;52.010;4.446;2023-09-12T03:55:06;77463.34;;;-144.67;100.00
47522;BME280;32291;52.010;4.446;2023-09-12T03:56:08;77461.22;;;-144.67;100.00
47522;BME280;32291;52.010;4.446;2023-09-12T03:57:14;77474.06;;;-144.67;100.00
47522;BME280;32291;52.010;4.446;2023-09-12T03:58:16;77467.63;;;-144.67;100.00
47522;BME280;32291;52.010;4.446;2023-09-12T03:59:19;77465.50;;;-144.67;100.00
47522;BME280;32291;52.010;4.446;2023-09-12T04:00:21;77456.94;;;-144.67;100.00
47522;BME280;32291;52.010;4.446;2023-09-12T04:01:28;77452.66;;;-144.67;100.00
47522;BME280;32291;52.010;4.446;2023-09-12T04:02:30;77448.38;;;-144.67;100.00
47522;BME280;32291;52.010;4.446;2023-09-12T04:03:33;77441.94;;;-144.67;100.00
47522;BME280;32291;52.010;4.446;2023-09-12T04:04:40;77452.66;;;-144.67;100.00
47522;BME280;32291;52.010;4.446;2023-09-12T04:05:42;77439.81;;;-144.67;100.00
47522;BME280;32291;52.010;4.446;2023-09-12T04:06:44;77437.66;;;-144.67;100.00
47522;BME280;32291;52.010;4.446;2023-09-12T04:07:47;77439.81;;;-144.67;100.00
47522;BME280;32291;52.010;4.446;2023-09-12T04:08:49;77441.94;;;-144.67;100.00
47522;BME280;32291;52.010;4.446;2023-09-12T04:09:56;77439.81;;;-144.67;100.00
47522;BME280;32291;52.010;4.446;2023-09-12T04:10:58;77437.66;;;-144.67;100.00
47522;BME280;32291;52.010;4.446;2023-09-12T04:12:06;77439.81;;;-144.67;100.00
47522;BME280;32291;52.010;4.446;2023-09-12T04:13:09;77444.09;;;-144.67;100.00
47522;BME280;32291;52.010;4.446;2023-09-12T04:14:18;77444.09;;;-144.67;100.00
47522;BME280;32291;52.010;4.446;2023-09-12T04:15:25;77444.09;;;-144.67;100.00
47522;BME280;32291;52.010;4.446;2023-09-12T04:16:32;77448.38;;;-144.67;100.00
47522;BME280;32291;52.010;4.446;2023-09-12T04:17:36;77444.09;;;-144.67;100.00
47522;BME280;32291;52.010;4.446;2023-09-12T04:18:44;77435.53;;;-144.67;100.00
47522;BME280;32291;52.010;4.446;2023-09-12T04:19:47;77439.81;;;-144.67;100.00
47522;BME280;32291;52.010;4.446;2023-09-12T04:20:54;77446.22;;;-144.67;100.00
47522;BME280;32291;52.010;4.446;2023-09-12T04:21:59;77444.09;;;-144.67;100.00
47522;BME280;32291;52.010;4.446;2023-09-12T04:23:03;77444.09;;;-144.67;100.00
47522;BME280;32291;52.010;4.446;2023-09-12T04:24:07;77452.66;;;-144.67;100.00
47522;BME280;32291;52.010;4.446;2023-09-12T04:25:09;77452.66;;;-144.67;100.00
47522;BME280;32291;52.010;4.446;2023-09-12T04:26:12;77452.66;;;-144.67;100.00
47522;BME280;32291;52.010;4.446;2023-09-12T04:27:19;77446.22;;;-144.67;100.00
47522;BME280;32291;52.010;4.446;2023-09-12T04:28:22;77439.81;;;-144.67;100.00
47522;BME280;32291;52.010;4.446;2023-09-12T04:29:24;77444.09;;;-144.67;100.00
47522;BME280;32291;52.010;4.446;2023-09-12T04:30:26;77433.38;;;-144.67;100.00
47522;BME280;32291;52.010;4.446;2023-09-12T04:31:29;77435.53;;;-144.67;100.00
47522;BME280;32291;52.010;4.446;2023-09-12T04:32:36;77437.66;;;-144.67;100.00
47522;BME280;32291;52.010;4.446;2023-09-12T04:33:38;77435.53;;;-144.67;100.00
47522;BME280;32291;52.010;4.446;2023-09-12T04:34:43;77439.81;;;-144.67;100.00
47522;BME280;32291;52.010;4.446;2023-09-12T04:35:45;77431.25;;;-144.67;100.00
47522;BME280;32291;52.010;4.446;2023-09-12T04:36:47;77426.97;;;-144.67;100.00
47522;BME280;32291;52.010;4.446;2023-09-12T04:37:55;77429.09;;;-144.67;100.00
47522;BME280;32291;52.010;4.446;2023-09-12T04:38:57;77422.69;;;-144.67;100.00
47522;BME280;32291;52.010;4.446;2023-09-12T04:40:06;77431.25;;;-144.67;100.00
47522;BME280;32291;52.010;4.446;2023-09-12T04:41:11;77416.25;;;-144.67;100.00
47522;BME280;32291;52.010;4.446;2023-09-12T04:42:16;77420.53;;;-144.67;100.00
47522;BME280;32291;52.010;4.446;2023-09-12T04:43:23;77420.53;;;-144.67;100.00
47522;BME280;32291;52.010;4.446;2023-09-12T04:44:25;77407.69;;;-144.67;100.00
47522;BME280;32291;52.010;4.446;2023-09-12T04:45:33;77409.84;;;-144.67;100.00
47522;BME280;32291;52.010;4.446;2023-09-12T04:46:40;77405.56;;;-144.67;100.00
47522;BME280;32291;52.010;4.446;2023-09-12T04:47:42;77401.28;;;-144.67;100.00
47522;BME280;32291;52.010;4.446;2023-09-12T04:48:44;77405.56;;;-144.67;100.00
47522;BME280;32291;52.010;4.446;2023-09-12T04:49:52;77405.56;;;-144.67;100.00
47522;BME280;32291;52.010;4.446;2023-09-12T04:50:59;77409.84;;;-144.67;100.00
47522;BME280;32291;52.010;4.446;2023-09-12T04:52:01;77401.28;;;-144.67;100.00
47522;BME280;32291;52.010;4.446;2023-09-12T04:53:08;77403.41;;;-144.67;100.00
47522;BME280;32291;52.010;4.446;2023-09-12T04:54:11;77405.56;;;-144.67;100.00
47522;BME280;32291;52.010;4.446;2023-09-12T04:55:18;77401.28;;;-144.67;100.00
47522;BME280;32291;52.010;4.446;2023-09-12T04:56:24;77401.28;;;-144.67;100.00
47522;BME280;32291;52.010;4.446;2023-09-12T04:57:30;77405.56;;;-144.67;100.00
47522;BME280;32291;52.010;4.446;2023-09-12T04:58:33;77401.28;;;-144.67;100.00
47522;BME280;32291;52.010;4.446;2023-09-12T04:59:35;77397.00;;;-144.67;100.00
47522;BME280;32291;52.010;4.446;2023-09-12T05:00:40;77399.13;;;-144.67;100.00
47522;BME280;32291;52.010;4.446;2023-09-12T05:01:42;77397.00;;;-144.67;100.00
47522;BME280;32291;52.010;4.446;2023-09-12T05:02:45;77392.72;;;-144.67;100.00
47522;BME280;32291;52.010;4.446;2023-09-12T05:03:52;77397.00;;;-144.67;100.00
47522;BME280;32291;52.010;4.446;2023-09-12T05:04:56;77397.00;;;-144.67;100.00
47522;BME280;32291;52.010;4.446;2023-09-12T05:06:01;77401.28;;;-144.67;100.00
47522;BME280;32291;52.010;4.446;2023-09-12T05:07:03;77399.13;;;-144.67;100.00
47522;BME280;32291;52.010;4.446;2023-09-12T05:08:05;77397.00;;;-144.67;100.00
47522;BME280;32291;52.010;4.446;2023-09-12T05:09:07;77392.72;;;-144.67;100.00
47522;BME280;32291;52.010;4.446;2023-09-12T05:10:11;77394.84;;;-144.67;100.00
47522;BME280;32291;52.010;4.446;2023-09-12T05:11:13;77401.28;;;-144.67;100.00
47522;BME280;32291;52.010;4.446;2023-09-12T05:12:20;77401.28;;;-144.67;100.00
47522;BME280;32291;52.010;4.446;2023-09-12T05:13:22;77397.00;;;-144.67;100.00
47522;BME280;32291;52.010;4.446;2023-09-12T05:14:24;77388.44;;;-144.67;100.00
47522;BME280;32291;52.010;4.446;2023-09-12T05:15:27;77399.13;;;-144.67;100.00
47522;BME280;32291;52.010;4.446;2023-09-12T05:16:36;77397.00;;;-144.67;100.00
47522;BME280;32291;52.010;4.446;2023-09-12T05:17:38;77388.44;;;-144.67;100.00
47522;BME280;32291;52.010;4.446;2023-09-12T05:18:41;77388.44;;;-144.67;100.00
47522;BME280;32291;52.010;4.446;2023-09-12T05:19:43;77384.16;;;-144.67;100.00
47522;BME280;32291;52.010;4.446;2023-09-12T05:20:46;77384.16;;;-144.67;100.00
47522;BME280;32291;52.010;4.446;2023-09-12T05:21:52;77379.88;;;-144.67;100.00
47522;BME280;32291;52.010;4.446;2023-09-12T05:22:55;77384.16;;;-144.67;100.00
47522;BME280;32291;52.010;4.446;2023-09-12T05:23:58;77377.72;;;-144.67;100.00
47522;BME280;32291;52.010;4.446;2023-09-12T05:25:00;77375.59;;;-144.67;100.00
47522;BME280;32291;52.010;4.446;2023-09-12T05:26:02;77388.44;;;-144.67;100.00
47522;BME280;32291;52.010;4.446;2023-09-12T05:27:10;77375.59;;;-144.67;100.00
47522;BME280;32291;52.010;4.446;2023-09-12T05:28:18;77377.72;;;-144.67;100.00
47522;BME280;32291;52.010;4.446;2023-09-12T05:29:24;77375.59;;;-144.67;100.00
47522;BME280;32291;52.010;4.446;2023-09-12T05:30:29;77373.44;;;-144.67;100.00
47522;BME280;32291;52.010;4.446;2023-09-12T05:31:31;77384.16;;;-144.67;100.00
47522;BME280;32291;52.010;4.446;2023-09-12T05:32:34;77379.88;;;-144.67;100.00
47522;BME280;32291;52.010;4.446;2023-09-12T05:33:36;77382.00;;;-144.67;100.00